createdAt,value
2018-03-25T11:19:59.032Z,37.90
2018-03-25T11:22:33.712Z,32.30
2018-03-25T11:25:07.644Z,37.40
2018-03-25T11:27:41.894Z,37.00
2018-03-25T11:30:15.505Z,37.90
2018-03-25T11:32:49.346Z,37.30
2018-03-25T11:35:23.165Z,37.50
2018-03-25T11:37:56.867Z,36.00
2018-03-25T11:40:31.815Z,36.40
2018-03-25T11:43:05.977Z,36.40
2018-03-25T11:45:39.620Z,36.20
2018-03-25T11:48:14.169Z,36.60
2018-03-25T11:50:47.982Z,36.60
2018-03-25T11:53:21.791Z,35.80
2018-03-25T11:55:56.159Z,35.10
2018-03-25T11:58:29.996Z,35.50
2018-03-25T12:01:04.562Z,36.40
2018-03-25T12:03:39.214Z,37.10
2018-03-25T12:06:13.124Z,36.80
2018-03-25T12:08:47.690Z,38.20
2018-03-25T12:11:21.534Z,39.50
2018-03-25T12:13:55.337Z,37.90
2018-03-25T12:16:32.106Z,38.50
2018-03-25T12:19:05.964Z,38.50
2018-03-25T12:21:39.866Z,36.90
2018-03-25T12:24:15.410Z,35.90
2018-03-25T12:26:49.319Z,35.30
2018-03-25T12:29:23.155Z,37.10
2018-03-25T12:31:57.143Z,39.40
2018-03-25T12:34:31.029Z,39.10
2018-03-25T12:37:04.916Z,39.00
2018-03-25T12:39:38.740Z,39.50
2018-03-25T12:42:13.187Z,37.90
2018-03-25T12:44:46.990Z,37.90
2018-03-25T12:47:21.541Z,36.20
2018-03-25T12:49:56.109Z,36.10
2018-03-25T12:52:30.704Z,38.40
2018-03-25T12:55:04.665Z,38.30
2018-03-25T12:57:39.269Z,36.40
2018-03-25T13:00:14.071Z,36.40
2018-03-25T13:02:52.583Z,37.10
2018-03-25T13:05:27.396Z,37.00
2018-03-25T13:08:01.799Z,36.10
2018-03-25T13:10:35.732Z,36.10
2018-03-25T13:13:10.208Z,36.30
2018-03-25T13:15:44.136Z,35.60
2018-03-25T13:18:20.770Z,36.00
2018-03-25T13:21:06.619Z,36.10
2018-03-25T13:23:41.525Z,38.40
2018-03-25T13:26:15.641Z,37.90
2018-03-25T13:28:49.510Z,36.70
2018-03-25T13:31:25.125Z,39.20
2018-03-25T13:33:59.832Z,39.20
2018-03-25T13:36:34.244Z,37.50
2018-03-25T13:39:09.352Z,37.50
2018-03-25T13:41:43.515Z,37.50
2018-03-25T13:44:18.516Z,36.60
2018-03-25T13:46:53.651Z,36.60
2018-03-25T13:49:28.251Z,37.20
2018-03-25T13:52:02.398Z,36.20
2018-03-25T13:54:37.171Z,36.80
2018-03-25T13:57:11.037Z,37.30
2018-03-25T13:59:45.674Z,36.90
2018-03-25T14:02:23.482Z,37.90
2018-03-25T14:04:58.109Z,36.50
2018-03-25T14:07:33.477Z,38.10
2018-03-25T14:10:17.198Z,36.50
2018-03-25T14:13:18.130Z,39.10
2018-03-25T14:15:56.554Z,39.00
2018-03-25T14:18:31.692Z,38.60
2018-03-25T14:21:14.977Z,39.70
2018-03-25T14:23:53.797Z,37.70
2018-03-25T14:26:28.675Z,38.30
2018-03-25T14:29:09.442Z,38.40
2018-03-25T14:31:47.867Z,40.50
2018-03-25T14:34:24.948Z,40.40
2018-03-25T14:37:02.672Z,41.40
2018-03-25T14:39:55.719Z,41.40
2018-03-25T14:42:58.102Z,40.70
2018-03-25T14:46:02.043Z,40.60
2018-03-25T14:57:59.524Z,41.50
2018-03-25T15:13:37.893Z,43.30
2018-03-25T15:16:33.072Z,42.70
2018-03-25T15:28:44.824Z,43.20
2018-03-25T15:32:12.145Z,43.80
2018-03-25T15:34:46.079Z,43.50
2018-03-25T15:37:23.560Z,44.50
2018-03-25T15:43:16.428Z,43.50
2018-03-25T15:46:04.622Z,43.30
2018-03-25T15:48:38.431Z,43.10
2018-03-25T15:51:13.340Z,44.20
2018-03-25T15:53:48.833Z,44.50
2018-03-25T15:56:23.137Z,44.50
2018-03-25T15:59:02.256Z,44.70
2018-03-25T16:01:35.904Z,44.80
2018-03-25T16:04:09.946Z,45.50
2018-03-25T16:06:43.861Z,45.80
2018-03-25T16:09:17.619Z,45.80
2018-03-25T16:11:52.067Z,45.30
2018-03-25T16:14:25.996Z,45.30
2018-03-25T16:17:00.523Z,46.10
2018-03-25T16:19:34.236Z,46.10
2018-03-25T16:22:07.988Z,46.20
2018-03-25T16:24:41.810Z,46.10
2018-03-25T16:27:15.739Z,45.80
2018-03-25T16:29:49.398Z,46.40
2018-03-25T16:32:23.246Z,46.40
2018-03-25T16:35:16.564Z,45.70
2018-03-25T16:37:50.501Z,46.70
2018-03-25T16:40:25.673Z,46.90
2018-03-25T16:42:59.604Z,46.80
2018-03-25T16:45:33.565Z,47.10
2018-03-25T16:48:08.055Z,46.20
2018-03-25T16:50:43.290Z,46.30
2018-03-25T16:53:19.433Z,45.90
2018-03-25T16:55:54.230Z,46.30
2018-03-25T16:58:27.970Z,46.30
2018-03-25T17:01:02.996Z,46.60
2018-03-25T17:03:36.759Z,46.60
2018-03-25T17:06:12.084Z,46.80
2018-03-25T17:08:47.069Z,46.40
2018-03-25T17:11:21.030Z,46.30
2018-03-25T17:13:54.907Z,46.20
2018-03-25T17:16:28.663Z,46.10
2018-03-25T17:19:02.446Z,46.50
2018-03-25T17:21:36.270Z,46.50
2018-03-25T17:24:10.014Z,46.70
2018-03-25T17:26:43.816Z,48.00
2018-03-25T17:29:17.581Z,48.40
2018-03-25T17:31:52.081Z,47.30
2018-03-25T17:34:25.752Z,48.10
2018-03-25T17:37:01.045Z,47.80
2018-03-25T17:39:58.030Z,47.70
2018-03-25T17:42:31.594Z,47.60
2018-03-25T17:45:06.336Z,47.70
2018-03-25T17:47:41.514Z,47.00
2018-03-25T17:50:15.641Z,47.30
2018-03-25T17:52:49.555Z,47.20
2018-03-25T17:55:23.658Z,46.80
2018-03-25T17:57:58.781Z,46.60
2018-03-25T18:00:39.055Z,46.60
2018-03-25T18:03:15.355Z,46.80
2018-03-25T18:05:53.002Z,47.10
2018-03-25T18:08:28.054Z,47.20
2018-03-25T18:11:11.159Z,47.20
2018-03-25T18:14:28.687Z,47.40
2018-03-25T18:17:02.800Z,48.00
2018-03-25T18:19:36.792Z,50.70
2018-03-25T18:24:52.746Z,54.30
2018-03-25T18:27:27.999Z,55.20
2018-03-25T18:30:03.206Z,56.40
2018-03-25T18:32:38.560Z,56.30
2018-03-25T18:35:14.948Z,56.60
2018-03-25T18:37:49.101Z,56.80
2018-03-25T18:40:23.952Z,57.10
2018-03-25T18:42:58.095Z,57.00
2018-03-25T18:45:32.297Z,57.70
2018-03-25T18:48:09.032Z,58.20
2018-03-25T18:50:47.267Z,59.00
2018-03-25T18:53:27.173Z,59.00
2018-03-25T18:56:06.069Z,59.00
2018-03-25T18:58:40.191Z,59.30
2018-03-25T19:01:16.345Z,59.50
2018-03-25T19:04:16.067Z,59.70
2018-03-25T19:06:50.490Z,59.80
2018-03-25T19:09:33.480Z,60.70
2018-03-25T19:12:10.503Z,61.50
2018-03-25T19:14:49.421Z,62.10
2018-03-25T19:17:25.768Z,62.20
2018-03-25T19:20:01.029Z,62.10
2018-03-25T19:22:35.223Z,62.10
2018-03-25T19:25:10.231Z,62.60
2018-03-25T19:27:45.434Z,63.00
2018-03-25T19:30:31.615Z,63.00
2018-03-25T19:33:14.840Z,62.70
2018-03-25T19:35:49.950Z,63.70
2018-03-25T19:38:25.421Z,63.60
2018-03-25T19:40:59.811Z,63.50
2018-03-25T19:43:37.073Z,64.90
2018-03-25T19:46:11.679Z,64.70
2018-03-25T19:48:50.991Z,64.70
2018-03-25T19:51:25.253Z,64.60
2018-03-25T19:54:00.081Z,65.40
2018-03-25T19:56:36.146Z,65.70
2018-03-25T19:59:19.504Z,65.60
2018-03-25T20:01:56.036Z,65.60
2018-03-25T20:04:33.101Z,65.90
2018-03-25T20:07:10.485Z,66.00
2018-03-25T20:09:44.509Z,66.50
2018-03-25T20:12:19.975Z,67.10
2018-03-25T20:14:53.845Z,67.10
2018-03-25T20:17:27.982Z,68.10
2018-03-25T20:20:01.959Z,68.10
2018-03-25T20:22:36.032Z,68.10
2018-03-25T20:25:11.182Z,68.40
2018-03-25T20:27:45.460Z,68.60
2018-03-25T20:30:19.245Z,68.80
2018-03-25T20:32:55.160Z,69.20
2018-03-25T20:35:28.976Z,69.70
2018-03-25T20:38:04.148Z,70.30
2018-03-25T20:40:40.297Z,70.20
2018-03-25T20:43:14.038Z,70.20
2018-03-25T20:45:47.954Z,70.80
2018-03-25T20:48:22.659Z,70.60
2018-03-25T20:50:58.933Z,70.50
2018-03-25T20:53:32.771Z,70.50
2018-03-25T20:56:08.402Z,70.30
2018-03-25T20:58:42.270Z,70.70
2018-03-25T21:01:16.274Z,70.60
2018-03-25T21:03:51.564Z,70.10
2018-03-25T21:06:25.259Z,70.20
2018-03-25T21:08:59.134Z,69.40
2018-03-25T21:11:33.855Z,69.30
2018-03-25T21:14:07.673Z,69.40
2018-03-25T21:16:41.487Z,69.60
2018-03-25T21:19:16.043Z,70.10
2018-03-25T21:21:50.374Z,70.50
2018-03-25T21:24:27.355Z,70.60
2018-03-25T21:27:01.248Z,71.10
2018-03-25T21:29:35.804Z,71.60
2018-03-25T21:32:10.436Z,71.50
2018-03-25T21:34:44.255Z,72.10
2018-03-25T21:37:17.878Z,72.80
2018-03-25T21:39:51.675Z,73.20
2018-03-25T21:42:25.385Z,73.00
2018-03-25T21:44:59.890Z,73.40
2018-03-25T21:47:33.460Z,73.10
2018-03-25T21:50:07.167Z,73.00
2018-03-25T21:52:40.902Z,73.30
2018-03-25T21:55:15.452Z,74.30
2018-03-25T21:57:49.211Z,74.20
2018-03-25T22:00:23.070Z,73.40
2018-03-25T22:02:56.933Z,73.50
2018-03-25T22:05:30.730Z,72.50
2018-03-25T22:08:04.515Z,72.30
2018-03-25T22:10:39.017Z,73.50
2018-03-25T22:13:12.831Z,73.50
2018-03-25T22:15:46.655Z,73.70
2018-03-25T22:18:33.134Z,73.30
2018-03-25T22:21:06.847Z,73.30
2018-03-25T22:23:40.494Z,73.80
2018-03-25T22:26:14.147Z,73.70
2018-03-25T22:28:47.778Z,74.10
2018-03-25T22:31:21.681Z,73.90
2018-03-25T22:33:55.440Z,74.30
2018-03-25T22:36:29.157Z,74.70
2018-03-25T22:39:03.717Z,73.90
2018-03-25T22:41:37.560Z,73.90
2018-03-25T22:44:11.945Z,73.70
2018-03-25T22:46:46.600Z,73.90
2018-03-25T22:49:21.124Z,73.40
2018-03-25T22:51:54.964Z,73.40
2018-03-25T22:54:28.897Z,73.20
2018-03-25T22:57:02.774Z,73.90
2018-03-25T22:59:37.214Z,74.80
2018-03-25T23:02:10.886Z,74.10
2018-03-25T23:04:45.507Z,74.20
2018-03-25T23:07:19.647Z,74.10
2018-03-25T23:09:54.057Z,74.50
2018-03-25T23:12:28.470Z,74.20
2018-03-25T23:15:02.131Z,74.10
2018-03-25T23:17:35.967Z,73.40
2018-03-25T23:20:09.745Z,73.30
2018-03-25T23:22:43.466Z,74.10
2018-03-25T23:25:17.293Z,73.50
2018-03-25T23:27:51.710Z,74.30
2018-03-25T23:30:25.488Z,74.40
2018-03-25T23:32:59.912Z,74.10
2018-03-25T23:35:34.497Z,73.40
2018-03-25T23:38:08.870Z,74.40
2018-03-25T23:40:44.046Z,74.40
2018-03-25T23:43:18.055Z,74.60
2018-03-25T23:45:51.850Z,74.90
2018-03-25T23:48:26.414Z,73.60
2018-03-25T23:51:01.021Z,73.80
2018-03-25T23:53:34.838Z,73.80
2018-03-25T23:56:08.853Z,73.10
2018-03-25T23:58:42.734Z,73.50
